Time;durP1;ratioP1;P1;durP2;ratioP2;P2;SDS_P1;SDS_P2;PMS_P1;PMS_P2;Temp;Humidity;BMP_temperature;BMP_pressure;BME280_temperature;BME280_humidity;BME280_pressure;Samples;Min_cycle;Max_cycle;Signal;HPM_P1;HPM_P2
2023/12/12 00:02:12;;;;;;;5.93;2.10;;;5.00;99.90;;;;;;5062435;28;20486;-73
2023/12/12 00:04:38;;;;;;;9.40;2.58;;;4.90;99.90;;;;;;5050304;28;20093;-74
2023/12/12 00:07:03;;;;;;;6.78;2.33;;;4.90;99.90;;;;;;5055096;28;20426;-73
2023/12/12 00:09:29;;;;;;;7.15;2.42;;;4.80;99.90;;;;;;5047462;28;20037;-74
2023/12/12 00:11:54;;;;;;;8.80;2.47;;;4.80;99.90;;;;;;5071842;28;20043;-74
2023/12/12 00:14:20;;;;;;;5.88;2.22;;;4.70;99.90;;;;;;5058545;28;20101;-74
2023/12/12 00:16:46;;;;;;;6.63;2.22;;;4.70;99.90;;;;;;5060346;28;20120;-73
2023/12/12 00:19:11;;;;;;;10.02;2.33;;;4.60;99.90;;;;;;5047774;28;20043;-74
2023/12/12 00:21:37;;;;;;;5.97;2.15;;;4.60;99.90;;;;;;5047822;28;20479;-74
2023/12/12 00:24:03;;;;;;;8.27;2.10;;;4.50;99.90;;;;;;5059994;28;20045;-73
2023/12/12 00:26:29;;;;;;;5.18;2.20;;;4.40;99.90;;;;;;5050620;28;20389;-74
2023/12/12 00:28:55;;;;;;;5.25;2.00;;;4.40;99.90;;;;;;5041035;28;20047;-74
2023/12/12 00:31:20;;;;;;;6.97;2.08;;;4.30;99.90;;;;;;5048223;28;20040;-71
2023/12/12 00:33:46;;;;;;;4.82;1.80;;;4.30;99.90;;;;;;5042410;28;20067;-72
2023/12/12 00:36:11;;;;;;;6.35;1.83;;;4.30;99.90;;;;;;5061083;28;20043;-75
2023/12/12 00:38:37;;;;;;;7.65;2.10;;;4.30;99.90;;;;;;5037586;28;20484;-75
2023/12/12 00:41:04;;;;;;;4.30;1.92;;;4.30;99.90;;;;;;5070152;28;20076;-75
2023/12/12 00:43:29;;;;;;;10.60;2.45;;;4.30;99.90;;;;;;5049559;28;20051;-74
2023/12/12 00:45:55;;;;;;;5.82;2.08;;;4.30;99.90;;;;;;5066838;28;20036;-74
2023/12/12 00:48:20;;;;;;;11.40;2.30;;;4.30;99.90;;;;;;5045513;28;20047;-73
2023/12/12 00:50:46;;;;;;;8.02;2.08;;;4.20;99.90;;;;;;5063124;28;20036;-74
2023/12/12 00:53:12;;;;;;;11.18;1.80;;;4.30;99.90;;;;;;5060726;28;20032;-73
2023/12/12 00:55:37;;;;;;;8.38;2.17;;;4.20;99.90;;;;;;5034525;28;20124;-75
2023/12/12 00:58:03;;;;;;;4.28;1.92;;;4.20;99.90;;;;;;5068669;28;20037;-74
2023/12/12 01:00:28;;;;;;;7.47;2.10;;;4.30;99.90;;;;;;5069512;28;20506;-74
2023/12/12 01:02:54;;;;;;;5.70;2.35;;;4.20;99.90;;;;;;5047303;28;20167;-71
2023/12/12 01:05:20;;;;;;;5.70;1.75;;;4.20;99.90;;;;;;5047567;28;20653;-72
2023/12/12 01:07:45;;;;;;;6.53;2.08;;;4.20;99.90;;;;;;5058239;28;20135;-74
2023/12/12 01:10:11;;;;;;;6.85;2.20;;;4.10;99.90;;;;;;5060340;28;20043;-74
2023/12/12 01:12:37;;;;;;;5.70;1.75;;;4.10;99.90;;;;;;5055556;28;20036;-74
2023/12/12 01:15:03;;;;;;;7.78;2.03;;;4.10;99.90;;;;;;5062263;28;20448;-74
2023/12/12 01:17:29;;;;;;;4.72;1.90;;;4.10;99.90;;;;;;5058818;28;20048;-76
2023/12/12 01:19:55;;;;;;;8.32;2.00;;;4.10;99.90;;;;;;5077346;28;20032;-70
2023/12/12 01:22:20;;;;;;;9.88;2.20;;;4.00;99.90;;;;;;5029322;28;20124;-69
2023/12/12 01:24:46;;;;;;;9.48;2.08;;;4.10;99.90;;;;;;5049265;28;22120;-74
2023/12/12 01:27:12;;;;;;;10.77;2.13;;;4.00;99.90;;;;;;5050422;28;20048;-74
2023/12/12 01:29:38;;;;;;;8.85;2.03;;;4.00;99.90;;;;;;5030749;28;20079;-69
2023/12/12 01:32:04;;;;;;;4.97;1.63;;;4.00;99.90;;;;;;5046813;28;20037;-74
2023/12/12 01:34:30;;;;;;;8.35;2.08;;;3.90;99.90;;;;;;5040761;28;20128;-71
2023/12/12 01:36:56;;;;;;;7.68;2.00;;;3.90;99.90;;;;;;5044510;28;20086;-70
2023/12/12 01:39:22;;;;;;;3.10;1.70;;;3.90;99.90;;;;;;5056959;28;20542;-73
2023/12/12 01:41:49;;;;;;;8.32;1.50;;;4.00;99.90;;;;;;5065045;28;20502;-73
2023/12/12 01:44:14;;;;;;;6.40;1.75;;;3.90;99.90;;;;;;5046694;28;20128;-74
2023/12/12 01:46:44;;;;;;;7.03;1.50;;;3.90;99.90;;;;;;5067728;28;20165;-74
2023/12/12 01:49:10;;;;;;;8.77;2.47;;;3.90;99.90;;;;;;5032260;28;20048;-74
2023/12/12 01:51:36;;;;;;;5.53;1.60;;;3.80;99.90;;;;;;5054003;28;20047;-70
2023/12/12 01:54:03;;;;;;;5.95;1.73;;;3.80;99.90;;;;;;5049367;28;20044;-74
2023/12/12 01:56:29;;;;;;;5.88;1.80;;;3.80;99.90;;;;;;5048808;28;20048;-74
2023/12/12 01:58:57;;;;;;;6.55;1.95;;;3.70;99.90;;;;;;5047752;28;20033;-73
2023/12/12 02:01:23;;;;;;;7.97;1.85;;;3.70;99.90;;;;;;5049604;28;20473;-74
2023/12/12 02:03:51;;;;;;;5.00;1.88;;;3.70;99.90;;;;;;5049954;28;20236;-74
2023/12/12 02:06:22;;;;;;;4.22;1.65;;;3.60;99.90;;;;;;5036012;28;20040;-71
2023/12/12 02:08:49;;;;;;;7.15;2.08;;;3.70;99.90;;;;;;5051320;28;20028;-72
2023/12/12 02:11:15;;;;;;;10.77;2.17;;;3.70;99.90;;;;;;5034371;28;20056;-75
2023/12/12 02:13:41;;;;;;;5.65;1.70;;;3.60;99.90;;;;;;5051155;28;20123;-74
2023/12/12 02:16:08;;;;;;;9.38;2.10;;;3.60;99.90;;;;;;5051119;28;20240;-74
2023/12/12 02:18:33;;;;;;;4.90;1.65;;;3.60;99.90;;;;;;5044899;28;20040;-75
2023/12/12 02:21:02;;;;;;;6.13;1.85;;;3.60;99.90;;;;;;5060077;28;20036;-75
2023/12/12 02:23:31;;;;;;;5.55;1.80;;;3.60;99.90;;;;;;5050601;28;20135;-74
2023/12/12 02:25:58;;;;;;;11.80;2.20;;;3.60;99.90;;;;;;5052102;28;20818;-76
2023/12/12 02:28:24;;;;;;;6.55;1.80;;;3.50;99.90;;;;;;5058515;28;20380;-74
2023/12/12 02:30:50;;;;;;;15.57;3.35;;;3.60;99.90;;;;;;5053850;28;20048;-75
2023/12/12 02:33:16;;;;;;;7.18;1.70;;;3.50;99.90;;;;;;5040466;28;20054;-74
2023/12/12 02:35:42;;;;;;;3.58;1.75;;;3.40;99.90;;;;;;5044995;28;20128;-73
2023/12/12 02:38:07;;;;;;;6.13;1.90;;;3.40;99.90;;;;;;5071179;28;20064;-74
2023/12/12 02:40:33;;;;;;;3.30;1.80;;;3.40;99.90;;;;;;5062447;28;20040;-75
2023/12/12 02:42:59;;;;;;;5.05;2.10;;;3.50;99.90;;;;;;5063195;28;20189;-75
2023/12/12 02:45:25;;;;;;;7.05;1.80;;;3.40;99.90;;;;;;5051877;28;20040;-73
2023/12/12 02:47:51;;;;;;;5.55;2.00;;;3.50;99.90;;;;;;5053240;28;20499;-72
2023/12/12 02:50:17;;;;;;;9.95;2.33;;;3.40;99.90;;;;;;5052827;28;20071;-72
2023/12/12 02:52:43;;;;;;;10.48;2.72;;;3.40;99.90;;;;;;5043602;28;20058;-74
2023/12/12 02:55:09;;;;;;;5.05;2.38;;;3.30;99.90;;;;;;5064182;28;20032;-75
2023/12/12 02:57:35;;;;;;;6.38;2.22;;;3.40;99.90;;;;;;5039965;28;20056;-74
2023/12/12 03:00:00;;;;;;;4.50;2.25;;;3.40;99.90;;;;;;5065841;28;20093;-75
2023/12/12 03:02:26;;;;;;;6.43;2.47;;;3.40;99.90;;;;;;5059377;28;20041;-74
2023/12/12 03:04:52;;;;;;;3.65;1.77;;;3.40;99.90;;;;;;5066902;28;20110;-73
2023/12/12 03:07:17;;;;;;;6.93;2.20;;;3.30;99.90;;;;;;5049731;28;20162;-74
2023/12/12 03:09:43;;;;;;;7.88;2.05;;;3.20;99.90;;;;;;5051277;28;20040;-74
2023/12/12 03:12:09;;;;;;;5.45;1.98;;;3.20;99.90;;;;;;5074395;28;20041;-73
2023/12/12 03:14:36;;;;;;;6.40;1.80;;;3.10;99.90;;;;;;5053742;28;20358;-73
2023/12/12 03:17:02;;;;;;;4.47;1.80;;;3.00;99.90;;;;;;5053292;28;20671;-72
2023/12/12 03:19:28;;;;;;;10.18;2.20;;;2.90;99.90;;;;;;5045426;28;20041;-74
2023/12/12 03:21:54;;;;;;;7.18;2.30;;;2.90;99.90;;;;;;5047473;28;20036;-71
2023/12/12 03:24:19;;;;;;;4.80;1.65;;;2.70;99.90;;;;;;5052752;28;20505;-74
2023/12/12 03:26:45;;;;;;;5.97;1.85;;;2.70;99.90;;;;;;5055255;28;20146;-74
2023/12/12 03:29:11;;;;;;;6.45;2.15;;;2.60;99.90;;;;;;5073648;28;20163;-74
2023/12/12 03:31:38;;;;;;;4.75;1.80;;;2.60;99.90;;;;;;5070356;28;20346;-75
2023/12/12 03:34:05;;;;;;;6.78;2.33;;;2.50;99.90;;;;;;5061744;28;20048;-74
2023/12/12 03:36:30;;;;;;;6.45;2.50;;;2.60;99.90;;;;;;5047770;28;20036;-76
2023/12/12 03:38:56;;;;;;;2.85;1.95;;;2.60;99.90;;;;;;5040286;28;20655;-75
2023/12/12 03:41:23;;;;;;;8.52;2.50;;;2.60;99.90;;;;;;5041858;28;20051;-72
2023/12/12 03:43:50;;;;;;;6.53;2.80;;;2.70;99.90;;;;;;5057785;28;20048;-73
2023/12/12 03:46:16;;;;;;;7.68;2.60;;;2.70;99.90;;;;;;5037758;28;20264;-75
2023/12/12 03:48:42;;;;;;;5.97;2.67;;;2.80;99.90;;;;;;5038574;28;20037;-75
2023/12/12 03:51:09;;;;;;;6.47;3.17;;;2.90;99.90;;;;;;5048213;28;20055;-74
2023/12/12 03:53:35;;;;;;;8.90;3.65;;;2.90;99.90;;;;;;5052933;28;20051;-74
2023/12/12 03:56:01;;;;;;;20.58;4.57;;;3.00;99.90;;;;;;5064183;28;20432;-74
2023/12/12 03:58:27;;;;;;;14.35;4.60;;;3.00;99.90;;;;;;5066585;28;20120;-74
2023/12/12 04:00:52;;;;;;;14.52;5.38;;;3.20;99.90;;;;;;5069398;28;20578;-74
2023/12/12 04:03:18;;;;;;;15.38;5.78;;;3.20;99.90;;;;;;5036445;28;20033;-75
2023/12/12 04:05:44;;;;;;;16.08;5.05;;;3.20;99.90;;;;;;5068948;28;20412;-75
2023/12/12 04:08:10;;;;;;;13.38;5.20;;;3.20;99.90;;;;;;5056219;28;20392;-73
2023/12/12 04:10:35;;;;;;;14.25;5.13;;;3.20;99.90;;;;;;5061571;28;20036;-75
2023/12/12 04:13:01;;;;;;;13.20;5.20;;;3.30;99.90;;;;;;5040181;28;20039;-74
2023/12/12 04:15:27;;;;;;;16.60;5.88;;;3.20;99.90;;;;;;5059677;28;20518;-74
2023/12/12 04:17:52;;;;;;;14.52;5.15;;;3.20;99.90;;;;;;5056268;28;20480;-75
2023/12/12 04:20:18;;;;;;;14.60;4.50;;;3.20;99.90;;;;;;5071163;28;20041;-74
2023/12/12 04:22:43;;;;;;;16.60;4.75;;;3.00;99.90;;;;;;5049638;28;20044;-74
2023/12/12 04:25:11;;;;;;;11.02;4.53;;;3.10;99.90;;;;;;5062581;28;20441;-71
2023/12/12 04:27:37;;;;;;;11.93;4.55;;;2.90;99.90;;;;;;5035514;28;20043;-75
2023/12/12 04:30:07;;;;;;;8.20;3.75;;;2.90;99.90;;;;;;5064621;28;20042;-78
2023/12/12 04:32:33;;;;;;;9.63;4.68;;;2.80;99.90;;;;;;5055954;28;20033;-76
2023/12/12 04:35:05;;;;;;;14.40;3.90;;;2.70;99.90;;;;;;5064214;28;20415;-76
2023/12/12 04:37:31;;;;;;;9.20;3.92;;;2.60;99.90;;;;;;5044236;28;20063;-75
2023/12/12 04:39:56;;;;;;;8.13;3.60;;;2.50;99.90;;;;;;5068808;28;20095;-76
2023/12/12 04:42:23;;;;;;;9.82;3.95;;;2.50;99.90;;;;;;5040106;28;20045;-76
2023/12/12 04:44:48;;;;;;;7.85;3.35;;;2.40;99.90;;;;;;5081412;28;20127;-75
2023/12/12 04:47:14;;;;;;;8.23;3.83;;;2.40;99.90;;;;;;5059742;28;20119;-76
2023/12/12 04:49:40;;;;;;;5.90;4.05;;;2.50;99.90;;;;;;5047219;28;20041;-75
2023/12/12 04:52:05;;;;;;;13.75;3.95;;;2.40;99.90;;;;;;5057271;28;20051;-75
2023/12/12 04:54:31;;;;;;;8.63;3.78;;;2.30;99.90;;;;;;5067590;28;20072;-76
2023/12/12 04:56:58;;;;;;;7.65;4.18;;;2.30;99.90;;;;;;5050060;28;20068;-77
2023/12/12 04:59:23;;;;;;;8.13;4.25;;;2.20;99.90;;;;;;5053719;28;20061;-75
2023/12/12 05:01:49;;;;;;;12.27;5.00;;;2.30;99.90;;;;;;5038290;28;20035;-74
2023/12/12 05:04:15;;;;;;;10.75;3.88;;;2.10;99.90;;;;;;5049474;28;20496;-75
2023/12/12 05:06:41;;;;;;;9.13;3.88;;;2.10;99.90;;;;;;5055527;28;20079;-75
2023/12/12 05:09:07;;;;;;;7.10;3.45;;;2.20;99.90;;;;;;5051027;28;20080;-76
2023/12/12 05:11:33;;;;;;;6.85;3.25;;;2.00;99.90;;;;;;5051399;28;20040;-76
2023/12/12 05:13:59;;;;;;;9.15;3.65;;;2.00;99.90;;;;;;5059764;28;20770;-75
2023/12/12 05:16:25;;;;;;;6.90;3.53;;;2.00;99.90;;;;;;5045636;28;20380;-76
2023/12/12 05:18:52;;;;;;;5.97;3.45;;;1.90;99.90;;;;;;5052681;28;20209;-76
2023/12/12 05:21:21;;;;;;;12.13;4.28;;;1.70;99.90;;;;;;5052672;28;20136;-75
2023/12/12 05:23:46;;;;;;;9.05;3.75;;;1.70;99.90;;;;;;5054699;28;20048;-76
2023/12/12 05:26:12;;;;;;;7.80;3.45;;;1.70;99.90;;;;;;5039003;28;20048;-74
2023/12/12 05:28:38;;;;;;;10.48;3.72;;;1.70;99.90;;;;;;5065178;28;20445;-76
2023/12/12 05:31:03;;;;;;;7.32;3.60;;;1.70;99.90;;;;;;5060645;28;20056;-76
2023/12/12 05:33:29;;;;;;;9.10;3.70;;;1.70;99.90;;;;;;5073397;28;20135;-74
2023/12/12 05:35:55;;;;;;;7.15;3.50;;;1.70;99.90;;;;;;5071400;28;20402;-76
2023/12/12 05:38:20;;;;;;;5.28;3.40;;;1.80;99.90;;;;;;5052548;28;20502;-75
2023/12/12 05:40:46;;;;;;;11.93;3.58;;;1.80;99.90;;;;;;5068110;28;20048;-77
2023/12/12 05:43:12;;;;;;;11.40;4.05;;;1.80;99.90;;;;;;5050357;28;20460;-77
2023/12/12 05:45:37;;;;;;;14.88;4.22;;;1.80;99.90;;;;;;5055524;28;20036;-76
2023/12/12 05:48:03;;;;;;;12.60;4.38;;;1.70;99.90;;;;;;5052963;28;20039;-76
2023/12/12 05:50:30;;;;;;;47.55;6.40;;;1.80;99.90;;;;;;5035568;28;20046;-73
2023/12/12 05:52:56;;;;;;;45.85;6.18;;;1.90;99.90;;;;;;5035066;28;20440;-73
2023/12/12 05:55:22;;;;;;;13.35;4.05;;;1.90;99.90;;;;;;5036117;28;20109;-77
2023/12/12 05:57:50;;;;;;;15.77;4.45;;;2.00;99.90;;;;;;5033798;28;20047;-76
2023/12/12 06:00:16;;;;;;;62.80;5.63;;;2.00;99.90;;;;;;5050431;28;20075;-76
2023/12/12 06:02:41;;;;;;;66.95;6.35;;;2.00;99.90;;;;;;5053671;28;20070;-75
2023/12/12 06:05:08;;;;;;;32.60;4.72;;;2.00;99.90;;;;;;5058145;28;20046;-75
2023/12/12 06:07:37;;;;;;;74.28;7.20;;;2.00;99.90;;;;;;5053650;28;20472;-74
2023/12/12 06:10:08;;;;;;;50.30;6.13;;;2.10;99.90;;;;;;5033518;28;20376;-74
2023/12/12 06:12:34;;;;;;;;;;;2.00;99.90;;;;;;5062953;28;20032;-74
2023/12/12 06:15:00;;;;;;;89.13;7.95;;;2.00;99.90;;;;;;5056557;28;19924;-74
2023/12/12 06:17:26;;;;;;;93.47;8.68;;;2.10;99.90;;;;;;5051135;28;20063;-73
2023/12/12 06:19:52;;;;;;;67.05;6.53;;;2.20;99.90;;;;;;5036652;28;20806;-75
2023/12/12 06:22:17;;;;;;;90.95;9.52;;;2.20;99.90;;;;;;5035100;28;20045;-76
2023/12/12 06:24:43;;;;;;;57.63;7.40;;;2.20;99.90;;;;;;5054086;28;20038;-76
2023/12/12 06:27:08;;;;;;;59.53;7.68;;;2.20;99.90;;;;;;5047264;28;20036;-75
2023/12/12 06:29:34;;;;;;;66.18;8.63;;;2.20;99.90;;;;;;5062301;28;20427;-73
2023/12/12 06:32:00;;;;;;;40.55;6.90;;;2.30;99.90;;;;;;5048637;28;20036;-75
2023/12/12 06:34:25;;;;;;;77.30;8.50;;;2.30;99.90;;;;;;5041703;28;20036;-73
2023/12/12 06:36:51;;;;;;;55.55;8.20;;;2.40;99.90;;;;;;5052738;28;20028;-76
2023/12/12 06:39:16;;;;;;;61.83;7.95;;;2.60;99.90;;;;;;5041027;28;20047;-76
2023/12/12 06:41:42;;;;;;;43.40;6.93;;;2.60;99.90;;;;;;5058114;28;20655;-77
2023/12/12 06:44:08;;;;;;;67.07;9.00;;;2.60;99.90;;;;;;5059857;28;20037;-76
2023/12/12 06:46:33;;;;;;;84.25;10.20;;;2.80;99.90;;;;;;5069835;28;20035;-77
2023/12/12 06:48:59;;;;;;;45.78;9.38;;;2.80;99.90;;;;;;5067623;28;20076;-76
2023/12/12 06:51:25;;;;;;;85.32;11.43;;;2.80;99.90;;;;;;5051237;28;20050;-78
2023/12/12 06:53:52;;;;;;;67.28;10.10;;;2.80;99.90;;;;;;5080071;28;20040;-74
2023/12/12 06:56:20;;;;;;;73.85;8.98;;;2.90;99.90;;;;;;5069447;28;20457;-78
2023/12/12 06:58:46;;;;;;;63.35;8.50;;;2.90;99.90;;;;;;5052243;28;20028;-76
2023/12/12 07:01:13;;;;;;;70.10;9.77;;;2.80;99.90;;;;;;5069331;28;20106;-77
2023/12/12 07:03:39;;;;;;;40.72;8.88;;;3.00;99.90;;;;;;5066930;28;20130;-78
2023/12/12 07:06:06;;;;;;;28.95;7.72;;;2.90;99.90;;;;;;5055020;28;20103;-78
2023/12/12 07:08:31;;;;;;;41.88;9.43;;;3.00;99.90;;;;;;5069928;28;20051;-77
2023/12/12 07:10:57;;;;;;;24.75;7.20;;;3.00;99.90;;;;;;5076831;28;20036;-77
2023/12/12 07:13:22;;;;;;;55.20;9.77;;;2.90;99.90;;;;;;5069631;28;20363;-77
2023/12/12 07:15:48;;;;;;;36.92;7.93;;;3.10;99.90;;;;;;5075044;28;20096;-77
2023/12/12 07:18:14;;;;;;;44.33;10.10;;;3.00;99.90;;;;;;5064211;28;20068;-76
2023/12/12 07:20:41;;;;;;;76.75;11.30;;;3.10;99.90;;;;;;5070721;28;20062;-77
2023/12/12 07:23:07;;;;;;;37.33;8.52;;;3.10;99.90;;;;;;5055887;28;20136;-78
2023/12/12 07:25:32;;;;;;;54.95;9.30;;;3.20;99.90;;;;;;5060587;28;20060;-76
2023/12/12 07:27:58;;;;;;;73.22;12.35;;;3.30;99.90;;;;;;5050497;28;20039;-77
2023/12/12 07:30:24;;;;;;;68.32;10.93;;;3.30;99.90;;;;;;5072723;28;20083;-78
2023/12/12 07:32:49;;;;;;;49.05;9.40;;;3.30;99.90;;;;;;5065539;28;20111;-78
2023/12/12 07:35:16;;;;;;;42.63;10.00;;;3.30;99.90;;;;;;5051809;28;20524;-79
2023/12/12 07:37:42;;;;;;;62.22;10.57;;;3.30;99.90;;;;;;5054068;28;20040;-75
2023/12/12 07:40:08;;;;;;;45.20;9.10;;;3.40;99.90;;;;;;5057346;28;20487;-76
2023/12/12 07:42:34;;;;;;;54.22;10.00;;;3.50;99.90;;;;;;5061942;28;20047;-76
2023/12/12 07:45:01;;;;;;;48.90;11.23;;;3.40;99.90;;;;;;5080163;28;20044;-78
2023/12/12 07:47:27;;;;;;;59.30;11.68;;;3.50;99.90;;;;;;5069016;28;20044;-78
2023/12/12 07:49:53;;;;;;;104.85;13.70;;;3.50;99.90;;;;;;5050752;28;20043;-77
2023/12/12 07:52:19;;;;;;;129.13;14.95;;;3.50;99.90;;;;;;5059850;28;20060;-80
2023/12/12 07:54:45;;;;;;;65.22;13.23;;;3.60;99.90;;;;;;5073340;28;20106;-74
2023/12/12 07:57:11;;;;;;;88.57;14.10;;;3.70;99.90;;;;;;5052604;28;20044;-73
2023/12/12 07:59:37;;;;;;;82.53;15.90;;;3.70;99.90;;;;;;5034866;28;20040;-73
2023/12/12 08:02:02;;;;;;;70.68;12.65;;;3.90;99.90;;;;;;5070523;28;20472;-73
2023/12/12 08:04:28;;;;;;;52.30;10.98;;;4.00;99.90;;;;;;5066030;28;20051;-74
2023/12/12 08:06:54;;;;;;;66.25;13.25;;;4.00;99.90;;;;;;5060975;28;20028;-74
2023/12/12 08:09:20;;;;;;;86.97;13.68;;;4.10;99.90;;;;;;5049922;28;20078;-73
2023/12/12 08:11:46;;;;;;;58.88;12.27;;;4.00;99.90;;;;;;5070207;28;20052;-74
2023/12/12 08:14:11;;;;;;;74.43;13.77;;;4.10;99.90;;;;;;5080450;28;20489;-73
2023/12/12 08:16:37;;;;;;;63.15;13.55;;;4.10;99.90;;;;;;5045893;28;20119;-73
2023/12/12 08:19:03;;;;;;;37.83;11.25;;;4.10;99.90;;;;;;5048230;28;20050;-73
2023/12/12 08:21:29;;;;;;;54.45;11.95;;;4.20;99.90;;;;;;5070824;28;20092;-73
2023/12/12 08:23:55;;;;;;;67.43;13.63;;;4.00;99.90;;;;;;5071514;28;20047;-73
2023/12/12 08:26:24;;;;;;;106.75;18.48;;;4.10;99.90;;;;;;5064056;28;20040;-73
2023/12/12 08:28:50;;;;;;;100.90;16.92;;;4.30;99.90;;;;;;5059808;28;20119;-73
2023/12/12 08:31:15;;;;;;;89.07;16.30;;;4.20;99.90;;;;;;5064819;28;20124;-73
2023/12/12 08:33:42;;;;;;;81.93;17.15;;;4.20;99.90;;;;;;5067646;28;20036;-74
2023/12/12 08:36:10;;;;;;;162.20;24.95;;;4.30;99.90;;;;;;5060398;28;20075;-73
2023/12/12 08:38:36;;;;;;;71.30;17.42;;;4.30;99.90;;;;;;5070815;28;20044;-73
2023/12/12 08:41:02;;;;;;;96.78;18.20;;;4.50;99.90;;;;;;5077077;28;20028;-74
2023/12/12 08:43:28;;;;;;;75.18;17.52;;;4.50;99.90;;;;;;5090261;28;20331;-72
2023/12/12 08:45:55;;;;;;;96.88;20.25;;;4.50;99.90;;;;;;5080755;28;20040;-73
2023/12/12 08:48:23;;;;;;;220.82;28.85;;;4.70;99.90;;;;;;5072207;28;20063;-72
2023/12/12 08:50:50;;;;;;;132.80;22.45;;;4.60;99.90;;;;;;5055439;28;20087;-72
2023/12/12 08:53:16;;;;;;;295.98;35.80;;;4.70;99.90;;;;;;5066510;28;20424;-73
2023/12/12 08:55:42;;;;;;;205.02;31.15;;;5.00;99.90;;;;;;5083227;28;20118;-72
2023/12/12 08:58:08;;;;;;;245.02;33.55;;;5.00;99.90;;;;;;5072746;28;20040;-75
2023/12/12 09:00:33;;;;;;;277.70;39.53;;;5.10;99.90;;;;;;5062515;28;20036;-72
2023/12/12 09:02:59;;;;;;;246.48;36.95;;;5.00;99.90;;;;;;5070424;28;20384;-70
2023/12/12 09:05:25;;;;;;;229.60;37.40;;;5.00;99.90;;;;;;5061303;28;20083;-73
2023/12/12 09:07:51;;;;;;;242.60;37.22;;;5.30;99.90;;;;;;5055248;28;20024;-72
2023/12/12 09:10:17;;;;;;;281.55;41.55;;;5.20;99.90;;;;;;5057254;28;20605;-70
2023/12/12 09:12:43;;;;;;;392.10;49.05;;;5.40;99.90;;;;;;5075627;28;20131;-74
2023/12/12 09:15:09;;;;;;;266.88;41.28;;;5.50;99.90;;;;;;5083024;28;20173;-71
2023/12/12 09:17:35;;;;;;;174.18;37.75;;;5.40;99.90;;;;;;5074904;28;20067;-76
2023/12/12 09:20:01;;;;;;;157.73;36.10;;;5.50;99.90;;;;;;5068586;28;20484;-72
2023/12/12 09:22:27;;;;;;;311.00;48.63;;;5.40;99.90;;;;;;5084910;28;20046;-72
2023/12/12 09:24:53;;;;;;;230.10;42.65;;;5.40;99.90;;;;;;5054421;28;20143;-72
2023/12/12 09:27:18;;;;;;;212.52;44.00;;;5.40;99.90;;;;;;5067500;28;20478;-72
2023/12/12 09:29:44;;;;;;;242.80;43.95;;;5.60;99.90;;;;;;5058842;28;20045;-73
2023/12/12 09:32:09;;;;;;;317.77;50.17;;;5.60;99.90;;;;;;5044334;28;20032;-72
2023/12/12 09:34:35;;;;;;;203.25;39.53;;;5.50;99.90;;;;;;5061399;28;20594;-73
2023/12/12 09:37:00;;;;;;;185.98;37.47;;;5.50;99.90;;;;;;5068263;28;20082;-72
2023/12/12 09:39:26;;;;;;;219.48;40.28;;;5.70;99.90;;;;;;5050685;28;20524;-72
2023/12/12 09:41:53;;;;;;;120.80;30.52;;;5.50;99.90;;;;;;5057138;28;20053;-73
2023/12/12 09:44:19;;;;;;;359.88;45.10;;;5.50;99.90;;;;;;5069372;28;20325;-72
2023/12/12 09:46:49;;;;;;;275.33;38.00;;;5.60;99.90;;;;;;5070316;28;20040;-72
2023/12/12 09:49:15;;;;;;;310.83;40.20;;;5.50;99.90;;;;;;5069718;28;20048;-73
2023/12/12 09:51:42;;;;;;;326.90;40.75;;;5.60;99.90;;;;;;5066211;28;20085;-72
2023/12/12 09:54:10;;;;;;;226.43;34.78;;;5.60;99.90;;;;;;5082351;28;20040;-72
2023/12/12 09:56:36;;;;;;;137.45;28.10;;;5.50;99.90;;;;;;5069118;28;20086;-72
2023/12/12 09:59:05;;;;;;;349.35;41.65;;;5.60;99.90;;;;;;5050434;28;20032;-72
2023/12/12 10:01:37;;;;;;;267.00;37.80;;;5.50;99.90;;;;;;5061324;28;20098;-72
2023/12/12 10:04:06;;;;;;;241.90;34.15;;;5.50;99.90;;;;;;5063914;28;20037;-72
2023/12/12 10:06:45;;;;;;;312.02;40.75;;;5.50;99.90;;;;;;5060214;28;20045;-73
2023/12/12 10:09:11;;;;;;;233.52;34.20;;;5.60;99.90;;;;;;5067020;28;20041;-74
2023/12/12 10:11:36;;;;;;;243.52;36.65;;;5.70;99.90;;;;;;5063961;28;20546;-74
2023/12/12 10:14:02;;;;;;;339.13;45.15;;;5.80;99.90;;;;;;5065282;28;20040;-72
2023/12/12 10:16:30;;;;;;;472.02;55.25;;;5.60;99.90;;;;;;5063412;28;20036;-73
2023/12/12 10:19:01;;;;;;;350.23;43.15;;;5.60;99.90;;;;;;5085261;28;20130;-73
2023/12/12 10:21:27;;;;;;;308.50;51.10;;;5.70;99.90;;;;;;5084909;28;20040;-72
2023/12/12 10:23:53;;;;;;;431.40;61.22;;;5.60;99.90;;;;;;5065575;28;20118;-69
2023/12/12 10:26:24;;;;;;;288.65;51.58;;;5.80;99.90;;;;;;5069120;28;20040;-72
2023/12/12 10:28:51;;;;;;;372.00;57.60;;;5.80;99.90;;;;;;5051067;28;20041;-72
2023/12/12 10:31:18;;;;;;;271.92;49.00;;;5.70;99.90;;;;;;5073079;28;20051;-73
2023/12/12 10:33:44;;;;;;;288.40;50.25;;;5.80;99.90;;;;;;5055622;28;20388;-71
2023/12/12 10:36:10;;;;;;;341.75;55.53;;;5.90;99.90;;;;;;5072539;28;20040;-72
2023/12/12 10:38:38;;;;;;;326.77;55.70;;;5.70;99.90;;;;;;5066511;28;20487;-70
2023/12/12 10:41:20;;;;;;;219.88;45.45;;;5.90;99.90;;;;;;5064844;28;20040;-72
2023/12/12 10:43:47;;;;;;;209.30;45.22;;;5.90;99.90;;;;;;5069985;28;20050;-72
2023/12/12 10:46:19;;;;;;;212.68;45.08;;;5.80;99.90;;;;;;5091148;28;20113;-72
2023/12/12 10:48:49;;;;;;;268.58;47.72;;;5.80;99.90;;;;;;5083363;28;20491;-71
2023/12/12 10:51:17;;;;;;;195.32;45.00;;;5.80;99.90;;;;;;5068000;28;20074;-72
2023/12/12 10:53:45;;;;;;;202.63;43.38;;;5.90;99.90;;;;;;5070747;28;20070;-71
2023/12/12 10:56:12;;;;;;;184.00;42.17;;;5.70;99.90;;;;;;5055509;28;20058;-75
2023/12/12 10:58:41;;;;;;;182.52;41.75;;;5.90;99.90;;;;;;5071318;28;20069;-73
2023/12/12 11:01:09;;;;;;;113.50;33.13;;;5.80;99.90;;;;;;5086405;28;20122;-72
2023/12/12 11:03:36;;;;;;;173.57;40.15;;;5.80;99.90;;;;;;5063317;28;20152;-72
2023/12/12 11:06:03;;;;;;;105.43;31.90;;;5.80;99.90;;;;;;5082313;28;20078;-74
2023/12/12 11:08:30;;;;;;;114.50;34.58;;;5.80;99.90;;;;;;5070318;28;20043;-67
2023/12/12 11:10:56;;;;;;;80.82;28.85;;;5.70;99.90;;;;;;5065501;28;20038;-70
2023/12/12 11:13:32;;;;;;;108.28;32.13;;;5.70;99.90;;;;;;5069469;28;20123;-72
2023/12/12 11:15:59;;;;;;;115.63;35.50;;;5.70;99.90;;;;;;5059333;28;20043;-71
2023/12/12 11:18:25;;;;;;;102.78;31.95;;;5.70;99.90;;;;;;5054711;28;20098;-72
2023/12/12 11:20:51;;;;;;;76.85;28.75;;;5.60;99.90;;;;;;5055817;28;20426;-70
2023/12/12 11:23:56;;;;;;;75.32;29.02;;;5.60;99.90;;;;;;5057290;28;20032;-72
2023/12/12 11:26:25;;;;;;;78.20;31.58;;;5.60;99.90;;;;;;4974886;28;20042;-71
2023/12/12 11:28:52;;;;;;;88.47;31.90;;;5.80;99.90;;;;;;5042051;28;20048;-70
2023/12/12 11:31:27;;;;;;;88.40;33.50;;;5.80;99.90;;;;;;5053142;28;20195;-70
2023/12/12 11:34:05;;;;;;;73.47;28.88;;;5.90;99.90;;;;;;5051406;28;20041;-68
2023/12/12 11:36:50;;;;;;;80.00;31.70;;;5.80;99.90;;;;;;5051524;28;20491;-70
2023/12/12 11:39:37;;;;;;;78.18;30.38;;;5.90;99.90;;;;;;5068530;28;20043;-69
2023/12/12 11:42:05;;;;;;;75.55;28.05;;;5.80;99.90;;;;;;5068488;28;20113;-70
2023/12/12 11:44:42;;;;;;;81.35;29.88;;;5.90;99.90;;;;;;5075025;28;20051;-72
2023/12/12 11:47:14;;;;;;;75.40;29.55;;;5.80;99.90;;;;;;5080411;28;20039;-72
2023/12/12 11:49:40;;;;;;;68.28;27.13;;;5.90;99.90;;;;;;5071486;28;20070;-70
2023/12/12 11:52:07;;;;;;;80.85;30.50;;;5.80;99.90;;;;;;5068332;28;20391;-72
2023/12/12 11:54:33;;;;;;;74.22;28.90;;;5.90;99.90;;;;;;5054728;28;20437;-71
2023/12/12 11:57:00;;;;;;;83.07;29.98;;;5.80;99.90;;;;;;5064620;28;20349;-70
2023/12/12 11:59:30;;;;;;;78.43;30.55;;;6.00;99.90;;;;;;5069241;28;20087;-74
2023/12/12 12:01:56;;;;;;;70.78;29.35;;;5.90;99.90;;;;;;5035422;28;20048;-70
2023/12/12 12:04:22;;;;;;;80.25;29.83;;;5.90;99.90;;;;;;5057181;28;20400;-72
2023/12/12 12:06:52;;;;;;;69.47;27.38;;;5.90;99.90;;;;;;5071161;28;20032;-71
2023/12/12 12:09:19;;;;;;;80.88;29.20;;;5.90;99.90;;;;;;5064673;28;20036;-71
2023/12/12 12:11:49;;;;;;;72.53;28.00;;;6.00;99.90;;;;;;5063493;28;20051;-72
2023/12/12 12:14:23;;;;;;;66.82;27.33;;;6.10;99.90;;;;;;5067336;28;20051;-70
2023/12/12 12:16:53;;;;;;;83.90;29.35;;;6.10;99.90;;;;;;5064706;28;20432;-70
2023/12/12 12:19:33;;;;;;;81.30;30.67;;;6.10;99.90;;;;;;5081018;28;20118;-72
2023/12/12 12:22:07;;;;;;;80.22;29.92;;;6.00;99.90;;;;;;5086864;28;20036;-74
2023/12/12 12:24:40;;;;;;;78.90;30.75;;;6.00;99.90;;;;;;5073171;28;20064;-71
2023/12/12 12:27:06;;;;;;;87.45;31.23;;;6.10;99.90;;;;;;5051473;28;20819;-70
2023/12/12 12:29:31;;;;;;;94.40;32.28;;;6.00;99.90;;;;;;5081801;28;20055;-72
2023/12/12 12:32:12;;;;;;;88.47;30.95;;;6.20;99.90;;;;;;5075216;28;20044;-73
2023/12/12 12:34:38;;;;;;;104.28;31.92;;;6.10;99.90;;;;;;5080398;28;20047;-75
2023/12/12 12:37:04;;;;;;;107.90;36.33;;;6.20;99.90;;;;;;5062944;28;20039;-70
2023/12/12 12:39:29;;;;;;;114.38;37.03;;;6.20;99.90;;;;;;5096436;28;20140;-75
2023/12/12 12:41:55;;;;;;;119.82;38.00;;;6.30;99.90;;;;;;5071504;28;20127;-81